Airport View

Enter AWOS ICAO identifier for current METAR.

ex. KFNL

KLQK 262345Z AUTO 27005KT 10SM BKN110 09/M01 A2996 RMK AO2 T00901011

26 Jan 2020 23:34

Frequency: 120.0

Phone: 864-843-5801

Other Area AWOS: KCEU - KGYH - KGMU - KAND

TAF AMD KGMU 262042Z 2621/2718 24006KT P6SM SCT060 BKN120 FM270700 25005KT P6SM VCSH BKN050 PROB30 2709/2713 4SM -SHRA BR OVC022 FM271300 24007KT 5SM BR BKN022